Time;durP1;ratioP1;P1;durP2;ratioP2;P2;SDS_P1;SDS_P2;PMS_P1;PMS_P2;Temp;Humidity;BMP_temperature;BMP_pressure;BME280_temperature;BME280_humidity;BME280_pressure;Samples;Min_cycle;Max_cycle;Signal;HPM_P1;HPM_P2
2022/10/03 00:00:27;;;;;;;6.63;1.67;;;;;;;10.29;100.00;100354.69;5133964;57;1141026;-66
2022/10/03 00:06:21;;;;;;;11.83;1.70;;;;;;;10.34;100.00;100362.26;5133757;56;1141098;-67
2022/10/03 00:12:04;;;;;;;6.57;1.70;;;;;;;10.36;100.00;100349.77;5191909;56;1143331;-69
2022/10/03 00:17:20;;;;;;;8.70;1.93;;;;;;;10.36;100.00;100351.93;5218408;56;1138969;-68
2022/10/03 00:22:45;;;;;;;11.10;1.50;;;;;;;10.36;100.00;100342.67;5214137;56;1139067;-68
2022/10/03 00:28:12;;;;;;;6.07;1.40;;;;;;;10.34;100.00;100340.62;5200969;56;1141135;-67
2022/10/03 00:34:07;;;;;;;5.57;1.87;;;;;;;10.36;100.00;100340.03;5149257;56;1139095;-69
2022/10/03 00:39:30;;;;;;;9.37;1.80;;;;;;;10.39;100.00;100329.19;5215441;56;1141266;-68
2022/10/03 00:44:52;;;;;;;23.83;2.33;;;;;;;10.42;100.00;100338.68;5188808;56;1141048;-69
2022/10/03 00:50:19;;;;;;;9.33;1.60;;;;;;;10.42;100.00;100334.23;5219684;56;1143444;-67
2022/10/03 00:56:11;;;;;;;9.93;1.80;;;;;;;10.44;100.00;100336.28;5249397;55;1141175;-66
2022/10/03 01:01:31;;;;;;;6.77;1.60;;;;;;;10.45;100.00;100335.32;5234361;55;1141371;-69
2022/10/03 01:07:28;;;;;;;3.60;1.30;;;;;;;10.43;100.00;100329.79;5121620;57;1141150;-67
2022/10/03 01:12:41;;;;;;;5.80;1.47;;;;;;;10.43;100.00;100332.44;5201457;56;1139090;-69
2022/10/03 01:18:04;;;;;;;7.47;1.98;;;;;;;10.43;100.00;100331.95;5147063;56;1138938;-66
2022/10/03 01:23:17;;;;;;;8.58;1.27;;;;;;;10.47;100.00;100332.08;5197714;56;1139050;-67
2022/10/03 01:34:37;;;;;;;13.18;2.37;;;;;;;10.50;100.00;100321.27;5180168;56;1143553;-69
2022/10/03 01:40:04;;;;;;;3.13;1.30;;;;;;;10.52;100.00;100327.75;5206892;56;1143186;-68
2022/10/03 01:45:29;;;;;;;12.53;2.70;;;;;;;10.51;100.00;100334.84;5184023;56;1141310;-70
2022/10/03 01:50:40;;;;;;;8.27;1.07;;;;;;;10.52;100.00;100330.39;5117057;57;1143398;-67
2022/10/03 01:56:06;;;;;;;9.53;2.50;;;;;;;10.52;100.00;100333.88;5114177;57;1141109;-70
2022/10/03 02:01:52;;;;;;;9.20;2.70;;;;;;;10.54;100.00;100345.15;5129131;57;1141105;-69
2022/10/03 02:07:19;;;;;;;5.73;1.90;;;;;;;10.56;100.00;100348.52;5131449;57;1141429;-68
2022/10/03 02:12:33;;;;;;;10.30;1.80;;;;;;;10.58;100.00;100345.75;5213135;56;1138966;-70
2022/10/03 02:18:11;;;;;;;14.30;2.47;;;;;;;10.58;100.00;100349.72;5185441;56;1141117;-69
2022/10/03 02:23:33;;;;;;;5.93;1.50;;;;;;;10.56;100.00;100351.64;5135843;57;1141160;-70
2022/10/03 02:28:59;;;;;;;22.13;2.37;;;;;;;10.53;100.00;100350.59;5135991;56;1139060;-70
2022/10/03 02:34:32;;;;;;;15.43;1.87;;;;;;;10.49;100.00;100348.66;5152600;56;1143201;-70
2022/10/03 02:40:05;;;;;;;8.13;1.33;;;;;;;10.50;100.00;100357.44;5222776;56;1143499;-67
2022/10/03 02:45:32;;;;;;;14.07;2.37;;;;;;;10.48;100.00;100362.00;5221636;56;1141124;-69
2022/10/03 02:51:08;;;;;;;12.53;2.10;;;;;;;10.46;100.00;100353.34;5217804;56;1143208;-69
2022/10/03 02:56:35;;;;;;;11.43;2.53;;;;;;;10.44;100.00;100361.40;5161216;56;1143166;-68
2022/10/03 03:02:03;;;;;;;11.10;2.60;;;;;;;10.47;100.00;100369.57;5221111;56;1143146;-70
2022/10/03 03:07:37;;;;;;;11.50;1.73;;;;;;;10.50;100.00;100371.50;5222235;56;1143153;-67
2022/10/03 03:13:08;;;;;;;15.10;2.17;;;;;;;10.53;100.00;100365.97;5189699;56;1141091;-67
2022/10/03 03:18:30;;;;;;;9.27;1.87;;;;;;;10.55;100.00;100367.98;5220822;56;1141093;-70
2022/10/03 03:24:08;;;;;;;8.50;2.10;;;;;;;10.58;100.00;100373.52;5221750;56;1139181;-67
2022/10/03 03:29:18;;;;;;;13.43;2.80;;;;;;;10.62;100.00;100381.58;5242236;56;21170;-68
2022/10/03 03:34:43;;;;;;;8.23;1.20;;;;;;;10.64;100.00;100374.84;5222326;56;1138959;-70
2022/10/03 03:40:16;;;;;;;11.90;2.63;;;;;;;10.64;100.00;100387.59;5218873;56;1141056;-66
2022/10/03 03:45:47;;;;;;;5.13;1.10;;;;;;;10.68;100.00;100389.52;5221989;56;1143195;-69
2022/10/03 03:51:23;;;;;;;8.47;1.40;;;;;;;10.68;100.00;100382.90;5213435;56;1141097;-69
2022/10/03 03:57:04;;;;;;;9.90;2.00;;;;;;;10.70;100.00;100390.20;5191250;57;1141345;-68
2022/10/03 04:02:14;;;;;;;12.07;1.77;;;;;;;10.70;100.00;100386.23;5165442;56;1141141;-67
2022/10/03 04:07:36;;;;;;;12.93;2.70;;;;;;;10.70;100.00;100396.81;5156433;56;1143174;-70
2022/10/03 04:12:52;;;;;;;8.93;1.60;;;;;;;10.70;100.00;100400.78;5217232;56;1143159;-69
2022/10/03 04:24:12;;;;;;;;;;;;;;;10.69;100.00;100385.42;5223451;56;1141102;-67
2022/10/03 04:29:46;;;;;;;5.53;1.05;;;;;;;10.70;100.00;100387.55;5222605;56;974311;-68
2022/10/03 04:35:00;;;;;;;6.27;1.13;;;;;;;10.69;100.00;100380.61;5156305;56;1139150;-70
2022/10/03 04:40:25;;;;;;;;;;;;;;;10.68;100.00;100380.25;5138075;56;1141373;-69
2022/10/03 04:46:04;;;;;;;3.43;1.20;;;;;;;10.68;100.00;100395.64;5153260;55;978443;-70
2022/10/03 04:51:48;;;;;;;8.50;1.47;;;;;;;10.68;100.00;100403.58;5148389;57;1139007;-70
2022/10/03 04:57:06;;;;;;;3.33;1.07;;;;;;;10.67;100.00;100401.89;5133521;57;1141372;-69
2022/10/03 05:02:46;;;;;;;7.50;1.40;;;;;;;10.67;100.00;100396.60;5077523;57;1141121;-70
2022/10/03 05:08:30;;;;;;;7.53;1.43;;;;;;;10.69;100.00;100407.06;5088626;57;1141260;-70
2022/10/03 05:13:55;;;;;;;9.60;1.57;;;;;;;10.69;100.00;100409.71;5220749;56;1139416;-68
2022/10/03 05:19:29;;;;;;;6.70;1.50;;;;;;;10.69;100.00;100409.71;5298595;55;1139294;-68
2022/10/03 05:24:54;;;;;;;8.00;1.47;;;;;;;10.69;100.00;100418.97;5309867;55;1136966;-69
2022/10/03 05:30:09;;;;;;;8.07;1.87;;;;;;;10.70;100.00;100425.43;5310664;55;1141189;-70
2022/10/03 05:35:56;;;;;;;8.60;1.20;;;;;;;10.70;100.00;100425.43;5257557;55;1141176;-70
2022/10/03 05:41:13;;;;;;;7.73;1.13;;;;;;;10.73;100.00;100425.19;5210677;56;1141110;-70
2022/10/03 05:46:29;;;;;;;4.07;1.07;;;;;;;10.77;100.00;100425.80;5213168;55;1141557;-69
2022/10/03 05:51:48;;;;;;;9.53;2.13;;;;;;;10.76;100.00;100412.20;5210125;56;1141016;-67
2022/10/03 05:57:30;;;;;;;2.87;1.20;;;;;;;10.74;100.00;100406.20;5210493;56;1141364;-69
2022/10/03 06:03:15;;;;;;;6.00;1.50;;;;;;;10.75;100.00;100412.69;5184551;56;1141672;-70
2022/10/03 06:08:45;;;;;;;4.20;1.72;;;;;;;10.77;100.00;100418.70;5230644;55;1139095;-70
2022/10/03 06:14:23;;;;;;;4.83;1.30;;;;;;;10.84;100.00;100441.55;5307054;55;1139109;-70
2022/10/03 06:19:56;;;;;;;3.40;1.37;;;;;;;10.89;100.00;100458.72;5311114;55;1139316;-66
2022/10/03 06:25:51;;;;;;;3.90;1.63;;;;;;;10.96;100.00;100476.77;5249456;56;1141311;-69
2022/10/03 06:31:14;;;;;;;;;;;;;;;11.01;100.00;100475.41;5251210;56;1141297;-66
2022/10/03 06:36:50;;;;;;;5.17;1.87;;;;;;;11.05;100.00;100481.31;5234177;56;978512;-69
2022/10/03 06:42:19;;;;;;;10.47;3.10;;;;;;;11.08;100.00;100475.78;5179024;56;1139257;-69
2022/10/03 06:47:46;;;;;;;3.40;1.73;;;;;;;11.07;100.00;100484.68;5242594;56;1143433;-68
2022/10/03 06:53:20;;;;;;;7.13;2.37;;;;;;;11.08;100.00;100493.83;5230303;56;1141123;-68
2022/10/03 06:58:37;;;;;;;4.57;1.23;;;;;;;11.08;100.00;100499.60;5222316;56;1139042;-66
2022/10/03 07:04:02;;;;;;;9.67;2.33;;;;;;;11.10;100.00;100511.75;5221833;56;1139238;-69
2022/10/03 07:09:22;;;;;;;8.37;2.50;;;;;;;11.12;100.00;100499.24;5235246;55;1138995;-66
2022/10/03 07:14:35;;;;;;;4.33;2.07;;;;;;;11.13;100.00;100522.10;5310415;55;1139154;-67
2022/10/03 07:20:01;;;;;;;5.00;1.70;;;;;;;11.15;100.00;100520.14;5310268;55;1138503;-69
2022/10/03 07:25:46;;;;;;;5.83;2.10;;;;;;;11.20;100.00;100531.70;5309447;55;1141125;-70
2022/10/03 07:31:35;;;;;;;10.07;2.60;;;;;;;11.22;100.00;100531.09;5307749;55;1141122;-70
2022/10/03 07:43:16;;;;;;;7.30;2.67;;;;;;;11.28;100.00;100546.03;5239936;55;1141049;-70
2022/10/03 07:49:03;;;;;;;5.50;2.50;;;;;;;11.35;100.00;100554.78;5307630;55;1141151;-67
2022/10/03 07:54:25;;;;;;;3.77;1.60;;;;;;;11.36;100.00;100559.95;5301160;55;1139162;-70
2022/10/03 07:59:58;;;;;;;7.30;1.93;;;;;;;11.35;100.00;100569.34;5221068;55;1139223;-66
2022/10/03 08:05:29;;;;;;;16.17;2.30;;;;;;;11.34;100.00;100566.34;5139276;56;1137029;-66
2022/10/03 08:10:59;;;;;;;4.87;1.73;;;;;;;11.27;100.00;100573.47;5205857;56;1143315;-68
2022/10/03 08:16:34;;;;;;;6.33;2.40;;;;;;;11.26;100.00;100580.20;5088571;57;1141127;-71
2022/10/03 08:21:57;;;;;;;12.60;3.10;;;;;;;11.32;100.00;100581.50;5133101;57;1141171;-70
2022/10/03 08:27:19;;;;;;;8.43;2.37;;;;;;;11.39;100.00;100583.55;5132402;57;1143354;-69
2022/10/03 08:32:51;;;;;;;10.18;2.60;;;;;;;11.48;100.00;100592.55;4933950;58;1141255;-68
2022/10/03 08:38:25;;;;;;;8.83;2.50;;;;;;;11.56;100.00;100598.09;4918147;58;1143323;-68
2022/10/03 08:43:59;;;;;;;8.30;2.75;;;;;;;11.68;100.00;100602.39;4973878;58;1141144;-69
2022/10/03 08:49:59;;;;;;;4.85;1.77;;;;;;;11.88;100.00;100597.69;5018559;57;1139071;-69
2022/10/03 08:55:45;;;;;;;4.43;2.23;;;;;;;11.88;100.00;100597.69;5079899;57;1139076;-70
2022/10/03 09:01:35;;;;;;;10.50;3.10;;;;;;;11.92;100.00;100605.72;5069112;58;1141316;-67
2022/10/03 09:07:19;;;;;;;9.53;4.20;;;;;;;12.01;100.00;100612.58;5052094;57;1143189;-69
2022/10/03 09:13:05;;;;;;;6.50;3.25;;;;;;;12.12;100.00;100616.02;4986843;58;1141150;-69
2022/10/03 09:18:50;;;;;;;4.97;2.67;;;;;;;12.35;100.00;100619.44;4990112;58;1141394;-67
2022/10/03 09:24:21;;;;;;;5.20;3.53;;;;;;;12.37;100.00;100632.58;4911211;59;1139107;-68
2022/10/03 09:29:58;;;;;;;4.37;2.43;;;;;;;12.31;100.00;100640.06;4994059;58;1139005;-70
2022/10/03 09:35:44;;;;;;;10.70;3.67;;;;;;;12.23;100.00;100638.51;5150388;56;1139132;-71
2022/10/03 09:41:27;;;;;;;4.23;2.20;;;;;;;12.25;100.00;100636.58;5212510;56;1143263;-68
2022/10/03 09:47:21;;;;;;;6.10;2.77;;;;;;;12.34;100.00;100645.59;5207324;56;1141164;-68
2022/10/03 09:52:03;;;;;;;16.03;5.87;;;;;;;12.47;100.00;100652.05;5227282;55;1141245;-68
2022/10/03 09:57:44;;;;;;;9.37;4.13;;;;;;;12.54;100.00;100660.67;5266760;55;1143354;-69
2022/10/03 10:03:30;;;;;;;9.60;2.83;;;;;;;12.61;100.00;100663.19;5218660;56;1141146;-69
2022/10/03 10:09:14;;;;;;;4.77;2.53;;;;;;;12.71;100.00;100664.58;5213748;56;1141073;-71
2022/10/03 10:14:28;;;;;;;3.87;2.17;;;;;;;12.82;100.00;100672.50;5219106;56;1139061;-71
2022/10/03 10:19:47;;;;;;;5.23;2.37;;;;;;;12.93;100.00;100669.77;5223630;55;1139088;-68
2022/10/03 10:25:09;;;;;;;4.17;3.07;;;;;;;13.12;100.00;100674.84;5228468;55;1139150;-68
2022/10/03 10:30:31;;;;;;;6.30;4.23;;;;;;;13.25;100.00;100685.64;5214296;56;1139441;-72
2022/10/03 10:36:01;;;;;;;3.97;2.20;;;;;;;13.27;100.00;100690.33;5273149;55;1137235;-70
2022/10/03 10:41:45;;;;;;;3.97;2.77;;;;;;;13.28;100.00;100688.52;5270579;55;1141324;-67
2022/10/03 10:47:04;;;;;;;5.42;2.37;;;;;;;13.28;100.00;100699.98;5199372;56;1141087;-72
2022/10/03 10:52:43;;;;;;;6.30;2.87;;;;;;;13.26;100.00;100703.26;5111202;57;1141145;-68
2022/10/03 10:58:34;;;;;;;7.23;3.80;;;;;;;13.15;100.00;100707.78;5134017;57;1141149;-70
2022/10/03 11:04:10;;;;;;;8.10;3.70;;;;;;;13.07;100.00;100704.92;5137192;56;1141287;-70
2022/10/03 11:09:52;;;;;;;3.33;1.73;;;;;;;13.02;100.00;100707.95;5157792;56;1139049;-68
2022/10/03 11:15:37;;;;;;;2.87;2.20;;;;;;;12.88;100.00;100708.28;5219669;56;1139134;-70
2022/10/03 11:21:03;;;;;;;10.13;2.20;;;;;;;12.80;100.00;100726.19;5203140;56;1137135;-69
2022/10/03 11:26:51;;;;;;;6.00;1.80;;;;;;;12.75;100.00;100726.20;5165695;55;1143121;-68
2022/10/03 11:32:28;;;;;;;4.13;1.90;;;;;;;12.68;100.00;100720.55;5239510;55;1141007;-68
2022/10/03 11:37:53;;;;;;;2.33;2.13;;;;;;;12.61;100.00;100722.05;5154341;56;1141057;-71
2022/10/03 11:43:22;;;;;;;4.73;3.70;;;;;;;12.65;100.00;100717.70;5208975;56;1141060;-69
2022/10/03 11:48:46;;;;;;;1.73;1.57;;;;;;;12.77;100.00;100720.29;5219057;56;1141145;-68
2022/10/03 11:54:28;;;;;;;1.90;1.80;;;;;;;13.16;100.00;100710.80;5159331;56;1141223;-69
2022/10/03 11:59:54;;;;;;;1.83;1.70;;;;;;;13.30;100.00;100708.64;5290693;55;1139030;-71
2022/10/03 12:05:27;;;;;;;4.67;1.97;;;;;;;13.36;100.00;100717.91;5308107;55;1138914;-70
2022/10/03 12:11:14;;;;;;;3.70;1.43;;;;;;;13.79;100.00;100715.50;5293520;55;1139041;-69
2022/10/03 12:16:26;;;;;;;4.30;1.47;;;;;;;14.22;100.00;100715.18;5261501;56;1141080;-70
2022/10/03 12:21:57;;;;;;;2.00;1.80;;;;;;;14.68;100.00;100720.71;5140418;56;1141123;-68
2022/10/03 12:27:14;;;;;;;2.47;1.80;;;;;;;14.91;100.00;100718.61;5189422;56;1141105;-69
2022/10/03 12:32:52;;;;;;;1.83;0.80;;;;;;;15.19;100.00;100741.34;5190285;57;1141090;-69
2022/10/03 12:38:05;;;;;;;1.77;1.30;;;;;;;15.39;95.81;100735.84;5135364;57;1141130;-70
2022/10/03 12:43:53;;;;;;;2.00;1.10;;;;;;;15.47;97.21;100745.77;5161016;56;1139120;-71
2022/10/03 12:49:21;;;;;;;1.50;1.00;;;;;;;15.61;93.17;100745.32;5219798;56;1139058;-68
2022/10/03 12:54:52;;;;;;;2.87;1.20;;;;;;;15.60;92.90;100750.80;5190585;56;1139051;-68
2022/10/03 13:00:02;;;;;;;2.08;1.60;;;;;;;15.51;96.92;100744.49;5135866;57;1137115;-70
2022/10/03 13:05:57;;;;;;;5.33;2.67;;;;;;;15.36;94.80;100744.61;5129211;57;1136989;-68
2022/10/03 13:11:13;;;;;;;2.77;1.60;;;;;;;15.12;95.19;100753.08;5166175;56;1135156;-69
2022/10/03 13:16:39;;;;;;;1.57;1.30;;;;;;;14.89;95.92;100769.00;5156172;56;1139003;-68
2022/10/03 13:22:02;;;;;;;7.17;1.60;;;;;;;14.81;96.86;100772.87;5145573;56;1139170;-70
2022/10/03 13:27:39;;;;;;;8.07;4.33;;;;;;;14.72;97.66;100774.53;5144186;56;1139142;-68
2022/10/03 13:33:19;;;;;;;6.67;2.30;;;;;;;14.42;98.03;100772.33;5148906;56;1139344;-69
2022/10/03 13:38:46;;;;;;;3.33;2.23;;;;;;;14.37;100.00;100786.98;5205310;56;1139384;-70
2022/10/03 13:44:08;;;;;;;12.87;3.80;;;;;;;14.25;100.00;100782.27;5207746;56;1141196;-68
2022/10/03 13:49:34;;;;;;;9.93;4.37;;;;;;;14.19;100.00;100776.17;5218749;56;1143121;-70
2022/10/03 13:54:53;;;;;;;5.87;3.00;;;;;;;14.11;100.00;100772.00;5233865;55;1141185;-70
2022/10/03 14:00:15;;;;;;;26.97;22.58;;;;;;;13.89;100.00;100778.88;5242411;55;1139064;-71
2022/10/03 14:05:46;;;;;;;56.53;39.70;;;;;;;13.68;100.00;100801.50;5224100;56;1143253;-71
2022/10/03 14:11:25;;;;;;;5.33;2.63;;;;;;;13.52;100.00;100804.62;5201794;56;1143313;-68
2022/10/03 14:16:39;;;;;;;74.13;66.07;;;;;;;13.27;100.00;100802.38;5218133;56;1141185;-71
2022/10/03 14:22:07;;;;;;;34.75;26.90;;;;;;;13.14;100.00;100799.85;5133680;56;1145241;-70
2022/10/03 14:27:49;;;;;;;178.83;140.80;;;;;;;13.16;100.00;100792.64;5132788;57;1145272;-70
2022/10/03 14:33:23;;;;;;;28.10;20.23;;;;;;;13.18;100.00;100792.02;5132027;57;1149615;-67
2022/10/03 14:39:14;;;;;;;33.83;22.50;;;;;;;13.27;100.00;100792.59;5167290;56;1145809;-68
2022/10/03 14:44:30;;;;;;;19.57;12.43;;;;;;;13.56;100.00;100781.30;5217282;56;1145678;-69
2022/10/03 14:49:39;;;;;;;8.73;5.77;;;;;;;13.56;100.00;100781.30;5188591;56;1145309;-70
2022/10/03 14:54:45;;;;;;;7.80;2.07;;;;;;;13.60;100.00;100793.33;5173827;56;1141397;-72
2022/10/03 14:59:56;;;;;;;4.93;1.77;;;;;;;13.56;100.00;100795.91;5168090;56;1141129;-71
2022/10/03 15:05:09;;;;;;;6.87;2.37;;;;;;;13.48;100.00;100800.54;5164654;56;1139032;-71
2022/10/03 15:10:19;;;;;;;;;;;;;;;13.40;100.00;100796.87;5167812;56;1139343;-70
2022/10/03 15:15:38;;;;;;;13.90;6.40;;;;;;;13.50;100.00;100791.11;5191057;56;976776;-68
2022/10/03 15:20:45;;;;;;;34.47;30.97;;;;;;;13.68;100.00;100798.84;5243511;55;1139006;-70
2022/10/03 15:25:54;;;;;;;10.70;5.50;;;;;;;13.70;100.00;100803.55;5221476;55;1143204;-69
2022/10/03 15:31:13;;;;;;;19.57;6.20;;;;;;;13.69;100.00;100816.48;5192475;55;1141238;-70
2022/10/03 15:36:25;;;;;;;68.07;39.63;;;;;;;13.62;100.00;100808.17;5205390;56;1141186;-69
2022/10/03 15:41:56;;;;;;;89.07;52.13;;;;;;;13.49;100.00;100804.88;5210420;56;1143165;-68
2022/10/03 15:47:26;;;;;;;27.60;18.47;;;;;;;13.67;100.00;100807.30;5206399;56;1145308;-69
2022/10/03 15:52:48;;;;;;;80.40;54.48;;;;;;;14.10;100.00;100806.23;5204691;56;1145276;-69
2022/10/03 15:58:07;;;;;;;39.17;16.00;;;;;;;13.76;100.00;100810.97;5215816;55;1145379;-71
2022/10/03 16:03:26;;;;;;;25.23;9.77;;;;;;;13.56;100.00;100819.34;5252034;55;1145274;-71
2022/10/03 16:08:37;;;;;;;20.73;6.83;;;;;;;13.36;100.00;100822.84;5247093;55;1143217;-68
2022/10/03 16:14:06;;;;;;;12.77;4.67;;;;;;;13.18;100.00;100817.26;5244785;55;1143696;-68
2022/10/03 16:19:31;;;;;;;25.90;6.23;;;;;;;13.02;100.00;100813.67;5237439;55;1143618;-68
2022/10/03 16:24:47;;;;;;;12.80;3.50;;;;;;;12.87;100.00;100810.97;5232403;55;1143318;-70
2022/10/03 16:30:19;;;;;;;14.43;3.87;;;;;;;12.76;100.00;100811.50;5219825;56;1143493;-69
2022/10/03 16:35:38;;;;;;;17.07;6.03;;;;;;;12.65;100.00;100819.86;5272962;55;1141382;-70
2022/10/03 16:40:54;;;;;;;14.77;4.20;;;;;;;12.57;100.00;100819.63;5311906;55;1141217;-67
2022/10/03 16:46:13;;;;;;;13.07;3.60;;;;;;;12.45;100.00;100818.45;5234246;55;1141073;-67
2022/10/03 16:51:27;;;;;;;10.30;3.53;;;;;;;12.35;100.00;100823.66;5159938;56;1141410;-68
2022/10/03 16:56:40;;;;;;;10.08;3.17;;;;;;;12.26;100.00;100826.55;5165266;56;1141644;-67
2022/10/03 17:02:01;;;;;;;10.10;4.45;;;;;;;12.19;100.00;100828.02;5219207;56;1141294;-69
2022/10/03 17:07:22;;;;;;;13.55;4.00;;;;;;;12.14;100.00;100830.66;5219931;56;1142621;-69
2022/10/03 17:12:38;;;;;;;14.43;4.10;;;;;;;12.09;100.00;100834.99;5140341;56;1143216;-68
2022/10/03 17:17:58;;;;;;;13.73;5.60;;;;;;;12.09;100.00;100830.17;5135676;57;1143364;-67
2022/10/03 17:23:08;;;;;;;7.53;3.20;;;;;;;12.07;100.00;100834.27;5135964;57;1143491;-68
2022/10/03 17:28:21;;;;;;;9.53;3.07;;;;;;;12.04;100.00;100832.36;5136167;57;1141433;-67
2022/10/03 17:33:49;;;;;;;7.43;3.47;;;;;;;12.02;100.00;100828.98;5153656;56;1141348;-68
2022/10/03 17:39:15;;;;;;;22.07;4.33;;;;;;;11.98;100.00;100831.88;5242537;55;1141462;-70
2022/10/03 17:44:34;;;;;;;12.90;4.83;;;;;;;11.96;100.00;100827.64;5246967;55;1143536;-70
2022/10/03 17:50:15;;;;;;;14.87;5.87;;;;;;;11.94;100.00;100826.92;5221909;56;1143810;-70
2022/10/03 17:55:26;;;;;;;19.40;3.83;;;;;;;11.89;100.00;100825.98;5127107;57;1143206;-69
2022/10/03 18:00:39;;;;;;;8.50;3.50;;;;;;;11.85;100.00;100821.03;5195057;56;1141282;-69
2022/10/03 18:05:49;;;;;;;17.50;5.37;;;;;;;11.80;100.00;100816.55;5180660;56;1138999;-67
2022/10/03 18:11:00;;;;;;;22.27;8.28;;;;;;;11.76;100.00;100812.48;5174917;56;1141244;-71
2022/10/03 18:16:13;;;;;;;9.90;4.17;;;;;;;11.72;100.00;100813.64;5125020;57;1141267;-71
2022/10/03 18:21:38;;;;;;;13.43;5.53;;;;;;;11.69;100.00;100814.72;5037220;57;1139138;-69
2022/10/03 18:27:07;;;;;;;13.57;3.90;;;;;;;11.67;100.00;100809.17;5051961;58;1141157;-71
2022/10/03 18:32:21;;;;;;;13.73;5.07;;;;;;;11.59;100.00;100813.75;5038344;57;1139047;-68
2022/10/03 18:37:34;;;;;;;21.73;4.53;;;;;;;11.51;100.00;100812.16;5030644;58;1143199;-67
2022/10/03 18:42:40;;;;;;;14.00;2.97;;;;;;;11.44;100.00;100805.18;5048970;58;1143072;-68
2022/10/03 18:47:53;;;;;;;10.83;3.10;;;;;;;11.41;100.00;100805.89;5045677;58;1143142;-71
2022/10/03 18:53:25;;;;;;;11.83;3.93;;;;;;;11.39;100.00;100806.00;5077305;57;1143280;-71
2022/10/03 18:58:47;;;;;;;10.40;3.73;;;;;;;11.37;100.00;100806.59;5073943;58;1143215;-68
2022/10/03 19:04:00;;;;;;;12.37;3.40;;;;;;;11.36;100.00;100806.23;5070167;57;1143174;-71
2022/10/03 19:09:18;;;;;;;9.43;2.77;;;;;;;11.31;100.00;100811.02;5023702;57;1143221;-67
2022/10/03 19:15:06;;;;;;;13.60;5.17;;;;;;;11.25;100.00;100804.88;5027255;58;1141112;-66
2022/10/03 19:20:28;;;;;;;21.07;3.90;;;;;;;11.18;100.00;100804.97;4995027;58;1143463;-70
2022/10/03 19:25:36;;;;;;;10.85;2.67;;;;;;;11.13;100.00;100814.61;4938536;58;1142690;-71
2022/10/03 19:30:43;;;;;;;15.50;3.93;;;;;;;11.08;100.00;100810.13;4996257;58;1143168;-69
2022/10/03 19:35:52;;;;;;;12.33;3.17;;;;;;;11.10;100.00;100813.98;4940061;59;1143245;-70
2022/10/03 19:41:36;;;;;;;14.10;4.30;;;;;;;11.11;100.00;100823.61;4920142;60;1141431;-71
2022/10/03 19:47:13;;;;;;;22.00;3.43;;;;;;;11.09;100.00;100821.08;5042891;58;1141181;-70
2022/10/03 19:52:40;;;;;;;14.67;3.73;;;;;;;11.10;100.00;100815.30;5018391;58;1141310;-70
2022/10/03 19:57:51;;;;;;;11.30;2.80;;;;;;;11.08;100.00;100824.69;5017175;58;1143251;-68
2022/10/03 20:03:16;;;;;;;12.43;4.10;;;;;;;11.07;100.00;100832.26;5023172;58;1143199;-70
2022/10/03 20:08:43;;;;;;;8.97;2.37;;;;;;;11.04;100.00;100832.48;5036845;58;1143248;-71
2022/10/03 20:13:50;;;;;;;10.13;3.30;;;;;;;11.03;100.00;100828.14;4949196;58;1141173;-69
2022/10/03 20:19:53;;;;;;;11.03;2.57;;;;;;;10.97;100.00;100822.48;4972492;58;1143436;-70
2022/10/03 20:24:56;;;;;;;11.93;2.80;;;;;;;10.92;100.00;100806.94;5014709;58;1143439;-68
2022/10/03 20:30:18;;;;;;;11.83;3.43;;;;;;;10.89;100.00;100798.73;5045180;57;1143152;-69
2022/10/03 20:35:27;;;;;;;12.90;3.30;;;;;;;10.90;100.00;100806.20;5045094;57;1143154;-70
2022/10/03 20:40:40;;;;;;;10.57;2.63;;;;;;;10.87;100.00;100799.33;4922910;58;1143330;-68
2022/10/03 20:45:59;;;;;;;12.33;2.55;;;;;;;10.87;100.00;100801.12;4929792;58;1143357;-69
2022/10/03 20:51:05;;;;;;;14.87;3.40;;;;;;;10.82;100.00;100808.59;4931332;58;1143228;-71
2022/10/03 20:56:14;;;;;;;14.80;3.07;;;;;;;10.81;100.00;100809.06;4950949;58;1141277;-71
2022/10/03 21:01:23;;;;;;;8.73;1.93;;;;;;;10.78;100.00;100814.57;5059097;57;1141088;-68
2022/10/03 21:06:36;;;;;;;15.53;3.13;;;;;;;10.75;100.00;100802.89;4978268;58;1139144;-67
2022/10/03 21:11:44;;;;;;;9.58;2.58;;;;;;;10.72;100.00;100811.52;4998743;57;1141094;-69
2022/10/03 21:16:52;;;;;;;13.30;2.70;;;;;;;10.68;100.00;100810.92;5041916;58;1139082;-67
2022/10/03 21:22:02;;;;;;;12.10;2.77;;;;;;;10.64;100.00;100804.16;5063312;57;1141122;-68
2022/10/03 21:27:16;;;;;;;7.33;3.10;;;;;;;10.61;100.00;100816.77;5041773;58;1141115;-70
2022/10/03 21:32:38;;;;;;;11.13;3.10;;;;;;;10.61;100.00;100811.47;5063290;57;1139099;-69
2022/10/03 21:38:11;;;;;;;10.17;3.40;;;;;;;10.61;100.00;100814.12;5041736;58;1141076;-70
2022/10/03 21:43:30;;;;;;;23.30;3.77;;;;;;;10.50;100.00;100800.36;5065208;57;1143302;-66
2022/10/03 21:49:22;;;;;;;13.87;2.63;;;;;;;10.50;100.00;100800.36;5124453;57;1143128;-65
2022/10/03 21:54:57;;;;;;;12.37;2.90;;;;;;;10.52;100.00;100812.52;5209982;56;1143179;-67
2022/10/03 22:00:18;;;;;;;13.03;3.37;;;;;;;10.48;100.00;100800.47;5126834;57;1143060;-69
2022/10/03 22:05:37;;;;;;;14.63;3.72;;;;;;;10.45;100.00;100803.33;5128550;57;1143283;-65
2022/10/03 22:11:05;;;;;;;16.20;3.90;;;;;;;10.41;100.00;100798.36;5089776;57;1143224;-69
2022/10/03 22:16:23;;;;;;;14.73;3.17;;;;;;;10.33;100.00;100792.33;5047625;58;1143279;-67
2022/10/03 22:21:42;;;;;;;11.30;3.07;;;;;;;10.26;100.00;100797.67;5126884;57;1141086;-66
2022/10/03 22:26:55;;;;;;;9.40;2.30;;;;;;;10.21;100.00;100807.75;5130761;57;1141157;-66
2022/10/03 22:32:09;;;;;;;13.67;2.83;;;;;;;10.21;100.00;100808.59;5070871;57;1139072;-68
2022/10/03 22:37:15;;;;;;;12.27;3.70;;;;;;;10.23;100.00;100806.33;5117789;57;1141117;-69
2022/10/03 22:42:21;;;;;;;19.90;3.33;;;;;;;10.20;100.00;100806.06;5114193;57;1141059;-70
2022/10/03 22:47:31;;;;;;;11.60;3.23;;;;;;;10.17;100.00;100800.95;5126655;57;1141099;-70
2022/10/03 22:52:41;;;;;;;11.83;3.40;;;;;;;10.12;100.00;100796.46;5127359;57;1141231;-68
2022/10/03 22:57:47;;;;;;;15.20;3.00;;;;;;;10.08;100.00;100794.51;5040058;58;1141293;-68
2022/10/03 23:03:17;;;;;;;11.97;2.10;;;;;;;10.06;100.00;100789.84;5040359;58;1141092;-67
2022/10/03 23:08:36;;;;;;;15.07;3.47;;;;;;;10.06;100.00;100783.23;5040514;58;1143327;-68
2022/10/03 23:13:45;;;;;;;12.60;3.17;;;;;;;10.04;100.00;100781.17;5126657;57;1143192;-68
2022/10/03 23:19:39;;;;;;;14.37;2.87;;;;;;;10.04;100.00;100786.93;5121053;57;1143233;-67
2022/10/03 23:25:00;;;;;;;12.93;3.20;;;;;;;10.04;100.00;100774.56;5041430;57;1143391;-67
2022/10/03 23:30:17;;;;;;;17.77;2.47;;;;;;;10.07;100.00;100778.79;5129367;57;1143276;-66
2022/10/03 23:35:43;;;;;;;19.40;3.23;;;;;;;10.06;100.00;100780.59;5050157;57;1143130;-68
2022/10/03 23:40:49;;;;;;;17.52;2.52;;;;;;;10.04;100.00;100786.45;5067926;57;1143395;-66
2022/10/03 23:46:01;;;;;;;14.67;2.53;;;;;;;10.03;100.00;100790.05;5074507;57;1143136;-69
2022/10/03 23:51:10;;;;;;;19.73;2.70;;;;;;;10.03;100.00;100790.05;5128703;57;1143150;-69
2022/10/03 23:56:39;;;;;;;11.43;2.53;;;;;;;10.02;100.00;100792.32;5126638;57;1143417;-67
